createdAt,value
2022-09-14T00:01:41.789Z,4.00
2022-09-14T00:04:27.612Z,4.30
2022-09-14T00:07:13.213Z,4.30
2022-09-14T00:09:58.775Z,4.20
2022-09-14T00:12:44.200Z,3.90
2022-09-14T00:15:29.859Z,3.30
2022-09-14T00:18:15.434Z,3.90
2022-09-14T00:21:01.576Z,4.10
2022-09-14T00:23:47.016Z,4.60
2022-09-14T00:26:32.583Z,4.80
2022-09-14T00:29:18.258Z,4.00
2022-09-14T00:32:03.710Z,3.80
2022-09-14T00:34:49.103Z,4.40
2022-09-14T00:37:35.125Z,4.10
2022-09-14T00:40:20.659Z,4.30
2022-09-14T00:43:12.243Z,4.00
2022-09-14T00:46:02.138Z,4.50
2022-09-14T00:48:47.778Z,4.30
2022-09-14T00:51:33.910Z,3.40
2022-09-14T00:54:19.525Z,3.40
2022-09-14T00:57:05.373Z,4.40
2022-09-14T00:59:51.487Z,4.40
2022-09-14T01:02:38.031Z,4.50
2022-09-14T01:05:31.197Z,3.80
2022-09-14T01:08:30.459Z,4.50
2022-09-14T01:11:38.735Z,3.60
2022-09-14T01:14:35.599Z,3.50
2022-09-14T01:17:33.934Z,3.90
2022-09-14T01:20:26.846Z,5.20
2022-09-14T01:23:18.939Z,3.50
2022-09-14T01:26:13.459Z,5.10
2022-09-14T01:29:02.005Z,4.10
2022-09-14T01:31:50.358Z,4.40
2022-09-14T01:34:48.010Z,4.40
2022-09-14T01:37:40.229Z,4.30
2022-09-14T01:40:29.123Z,4.50
2022-09-14T01:43:20.259Z,3.70
2022-09-14T01:46:10.887Z,4.30
2022-09-14T01:49:04.406Z,4.00
2022-09-14T01:51:54.567Z,4.60
2022-09-14T01:54:52.524Z,4.40
2022-09-14T01:57:43.403Z,4.10
2022-09-14T02:00:30.299Z,3.30
2022-09-14T02:03:18.596Z,3.90
2022-09-14T02:06:10.982Z,4.20
2022-09-14T02:08:56.344Z,3.80
2022-09-14T02:11:41.976Z,4.40
2022-09-14T02:14:27.658Z,4.60
2022-09-14T02:17:13.605Z,3.80
2022-09-14T02:20:00.286Z,4.20
2022-09-14T02:22:45.737Z,4.00
2022-09-14T02:25:34.625Z,4.90
2022-09-14T02:28:20.302Z,4.90
2022-09-14T02:31:19.999Z,4.00
2022-09-14T02:34:10.295Z,4.20
2022-09-14T02:37:10.107Z,4.10
2022-09-14T02:40:05.364Z,5.20
2022-09-14T02:42:59.841Z,4.30
2022-09-14T02:46:11.804Z,4.50
2022-09-14T02:49:13.970Z,3.80
2022-09-14T02:52:24.976Z,5.30
2022-09-14T02:55:12.578Z,4.30
2022-09-14T02:58:06.797Z,4.20
2022-09-14T03:00:52.615Z,4.60
2022-09-14T03:03:38.504Z,4.40
2022-09-14T03:06:24.335Z,5.50
2022-09-14T03:09:09.960Z,4.40
2022-09-14T03:11:55.539Z,4.90
2022-09-14T03:14:41.235Z,5.50
2022-09-14T03:17:26.692Z,5.00
2022-09-14T03:20:12.188Z,5.10
2022-09-14T03:23:02.203Z,6.10
2022-09-14T03:25:47.949Z,6.70
2022-09-14T03:28:34.712Z,6.30
2022-09-14T03:31:20.993Z,6.70
2022-09-14T03:34:06.483Z,6.00
2022-09-14T03:36:52.059Z,5.50
2022-09-14T03:39:37.576Z,5.30
2022-09-14T03:42:23.616Z,4.60
2022-09-14T03:45:09.473Z,6.00
2022-09-14T03:47:56.927Z,6.00
2022-09-14T03:50:42.360Z,5.20
2022-09-14T03:53:28.085Z,5.30
2022-09-14T03:56:16.021Z,5.90
2022-09-14T03:59:01.719Z,6.90
2022-09-14T04:01:47.475Z,6.50
2022-09-14T04:04:33.511Z,4.90
2022-09-14T04:07:18.910Z,4.60
2022-09-14T04:10:07.454Z,4.50
2022-09-14T04:12:53.091Z,4.60
2022-09-14T04:15:38.392Z,4.80
2022-09-14T04:18:25.043Z,5.30
2022-09-14T04:21:16.131Z,4.10
2022-09-14T04:24:14.815Z,4.00
2022-09-14T04:27:01.742Z,5.40
2022-09-14T04:29:48.841Z,5.50
2022-09-14T04:32:34.847Z,5.60
2022-09-14T04:35:22.976Z,6.30
2022-09-14T04:38:08.820Z,6.00
2022-09-14T04:40:54.755Z,5.80
2022-09-14T04:43:40.733Z,6.10
2022-09-14T04:46:28.513Z,6.60
2022-09-14T04:49:18.411Z,5.80
2022-09-14T04:54:52.146Z,5.60
2022-09-14T04:57:39.659Z,4.70
2022-09-14T05:00:25.464Z,4.60
2022-09-14T05:03:11.056Z,5.50
2022-09-14T05:06:01.070Z,5.70
2022-09-14T05:08:47.130Z,4.30
2022-09-14T05:11:34.279Z,5.00
2022-09-14T05:14:20.083Z,4.40
2022-09-14T05:17:05.492Z,4.40
2022-09-14T05:19:50.795Z,4.90
2022-09-14T05:22:36.637Z,5.40
2022-09-14T05:25:22.310Z,5.80
2022-09-14T05:28:08.286Z,5.20
2022-09-14T05:30:53.745Z,6.60
2022-09-14T05:33:40.504Z,5.20
2022-09-14T05:36:26.610Z,5.20
2022-09-14T05:39:12.594Z,5.40
2022-09-14T05:41:58.487Z,5.40
2022-09-14T05:44:44.153Z,5.20
2022-09-14T05:47:30.016Z,5.80
2022-09-14T05:50:15.948Z,5.50
2022-09-14T05:53:01.129Z,5.20
2022-09-14T05:55:48.056Z,5.70
2022-09-14T05:58:37.429Z,5.20
2022-09-14T06:01:24.192Z,6.20
2022-09-14T06:04:11.045Z,5.50
2022-09-14T06:07:17.449Z,5.10
2022-09-14T06:10:02.068Z,6.00
2022-09-14T06:12:48.823Z,4.90
2022-09-14T06:15:36.962Z,5.30
2022-09-14T06:18:22.188Z,5.20
2022-09-14T06:21:08.229Z,5.40
2022-09-14T06:23:57.121Z,5.20
2022-09-14T06:26:43.086Z,4.90
2022-09-14T06:29:29.047Z,5.10
2022-09-14T06:32:15.012Z,4.90
2022-09-14T06:35:00.745Z,4.60
2022-09-14T06:37:46.709Z,4.70
2022-09-14T06:40:32.527Z,5.30
2022-09-14T06:43:18.313Z,5.30
2022-09-14T06:46:04.790Z,5.70
2022-09-14T06:48:58.180Z,5.60
2022-09-14T06:51:45.958Z,4.90
2022-09-14T06:54:34.876Z,5.20
2022-09-14T07:15:22.457Z,6.00
2022-09-14T07:18:08.064Z,7.50
2022-09-14T07:20:53.769Z,6.60
2022-09-14T07:23:40.097Z,5.90
2022-09-14T07:26:27.483Z,5.60
2022-09-14T07:29:14.919Z,5.50
2022-09-14T07:32:00.755Z,6.00
2022-09-14T07:34:46.093Z,6.10
2022-09-14T07:37:31.754Z,6.50
2022-09-14T07:40:17.611Z,6.80
2022-09-14T07:43:06.117Z,6.30
2022-09-14T07:45:51.686Z,7.00
2022-09-14T07:48:37.350Z,7.80
2022-09-14T07:51:23.388Z,7.40
2022-09-14T07:54:11.925Z,8.30
2022-09-14T07:56:57.394Z,6.90
2022-09-14T07:59:43.215Z,7.40
2022-09-14T08:02:28.899Z,6.90
2022-09-14T08:05:14.738Z,7.80
2022-09-14T08:08:00.075Z,6.60
2022-09-14T08:10:45.884Z,6.90
2022-09-14T08:13:33.071Z,6.60
2022-09-14T08:16:18.966Z,7.10
2022-09-14T08:19:05.223Z,6.00
2022-09-14T08:21:51.377Z,6.60
2022-09-14T08:24:36.840Z,6.40
2022-09-14T08:27:22.290Z,7.80
2022-09-14T08:30:07.661Z,6.80
2022-09-14T08:32:53.349Z,8.40
2022-09-14T08:35:57.385Z,6.80
2022-09-14T08:38:43.938Z,7.70
2022-09-14T08:41:47.093Z,8.70
2022-09-14T08:44:48.667Z,7.30
2022-09-14T08:47:39.210Z,9.20
2022-09-14T08:50:25.047Z,8.50
2022-09-14T08:53:10.251Z,8.40
2022-09-14T08:56:00.581Z,7.90
2022-09-14T08:58:50.036Z,8.70
2022-09-14T09:01:52.613Z,7.30
2022-09-14T09:04:52.776Z,8.10
2022-09-14T09:07:48.436Z,7.90
2022-09-14T09:10:34.488Z,7.80
2022-09-14T09:13:24.798Z,7.80
2022-09-14T09:16:10.846Z,8.20
2022-09-14T09:19:01.490Z,6.90
2022-09-14T09:21:47.522Z,9.50
2022-09-14T09:24:43.397Z,10.10
2022-09-14T09:27:28.855Z,9.50
2022-09-14T09:30:15.023Z,9.60
2022-09-14T09:33:00.825Z,8.70
2022-09-14T09:36:19.797Z,10.30
2022-09-14T09:39:06.116Z,10.40
2022-09-14T09:42:03.238Z,9.60
2022-09-14T09:45:09.727Z,9.10
2022-09-14T09:47:55.226Z,6.60
2022-09-14T09:50:48.964Z,6.40
2022-09-14T09:53:36.310Z,6.70
2022-09-14T09:56:25.895Z,5.20
2022-09-14T09:59:22.678Z,5.50
2022-09-14T10:02:22.816Z,6.50
2022-09-14T10:05:17.606Z,6.10
2022-09-14T10:08:14.125Z,5.20
2022-09-14T10:11:00.078Z,4.50
2022-09-14T10:13:46.536Z,5.50
2022-09-14T10:16:40.385Z,6.10
2022-09-14T10:19:28.535Z,4.40
2022-09-14T10:22:26.880Z,4.50
2022-09-14T10:25:15.184Z,5.50
2022-09-14T10:28:00.676Z,5.10
2022-09-14T10:30:50.403Z,3.90
2022-09-14T10:33:36.268Z,3.90
2022-09-14T10:36:32.097Z,3.90
2022-09-14T10:39:26.515Z,4.50
2022-09-14T10:42:37.714Z,4.80
2022-09-14T10:45:26.549Z,4.60
2022-09-14T10:48:25.380Z,4.20
2022-09-14T10:51:22.896Z,4.50
2022-09-14T10:54:26.968Z,3.70
2022-09-14T10:57:31.731Z,3.40
2022-09-14T11:00:20.718Z,3.70
2022-09-14T11:03:09.031Z,3.90
2022-09-14T11:06:04.037Z,3.80
2022-09-14T11:08:53.849Z,4.20
2022-09-14T11:11:48.565Z,3.50
2022-09-14T11:14:39.011Z,4.10
2022-09-14T11:17:43.254Z,4.10
2022-09-14T11:20:36.723Z,4.00
2022-09-14T11:23:47.942Z,3.80
2022-09-14T11:26:42.148Z,3.90
2022-09-14T11:29:43.634Z,3.90
2022-09-14T11:32:52.519Z,3.80
2022-09-14T11:35:42.817Z,3.70
2022-09-14T11:38:29.555Z,3.50
2022-09-14T11:41:33.596Z,3.60
2022-09-14T11:44:24.168Z,4.20
2022-09-14T11:47:12.254Z,3.20
2022-09-14T11:50:02.826Z,3.30
2022-09-14T11:52:52.937Z,4.00
2022-09-14T11:55:43.521Z,3.60
2022-09-14T11:58:29.100Z,3.30
2022-09-14T12:01:26.404Z,2.80
2022-09-14T12:04:16.398Z,3.20
2022-09-14T12:07:01.668Z,3.70
2022-09-14T12:09:46.910Z,4.90
2022-09-14T12:12:33.923Z,3.70
2022-09-14T12:15:28.246Z,4.10
2022-09-14T12:18:19.487Z,3.60
2022-09-14T12:21:07.586Z,4.60
2022-09-14T12:23:57.238Z,3.50
2022-09-14T12:26:43.362Z,3.70
2022-09-14T12:29:32.345Z,3.90
2022-09-14T12:32:25.327Z,3.80
2022-09-14T12:35:29.837Z,3.70
2022-09-14T12:38:33.602Z,4.00
2022-09-14T12:41:28.790Z,3.60
2022-09-14T12:44:31.445Z,4.80
2022-09-14T12:47:46.822Z,3.70
2022-09-14T12:50:33.724Z,4.30
2022-09-14T12:53:29.781Z,3.70
2022-09-14T12:56:21.333Z,4.10
2022-09-14T12:59:15.658Z,4.10
2022-09-14T13:02:10.240Z,4.80
2022-09-14T13:04:56.777Z,5.30
2022-09-14T13:07:42.685Z,4.50
2022-09-14T13:10:32.846Z,4.80
2022-09-14T13:13:20.361Z,3.90
2022-09-14T13:16:06.444Z,3.10
2022-09-14T13:18:58.916Z,3.60
2022-09-14T13:21:48.773Z,4.50
2022-09-14T13:24:45.889Z,3.60
2022-09-14T13:27:36.364Z,4.40
2022-09-14T13:30:25.507Z,3.60
2022-09-14T13:33:17.734Z,3.90
2022-09-14T13:36:04.653Z,3.10
2022-09-14T13:38:51.187Z,3.60
2022-09-14T13:41:41.867Z,3.40
2022-09-14T13:44:33.427Z,4.00
2022-09-14T13:47:19.893Z,3.00
2022-09-14T13:50:06.250Z,3.50
2022-09-14T13:53:02.930Z,3.80
2022-09-14T13:55:49.816Z,3.80
2022-09-14T13:58:35.864Z,4.50
2022-09-14T14:01:28.313Z,3.70
2022-09-14T14:04:26.936Z,3.80
2022-09-14T14:07:13.251Z,3.20
2022-09-14T14:09:59.534Z,3.60
2022-09-14T14:12:48.916Z,3.60
2022-09-14T14:15:37.434Z,3.50
2022-09-14T14:18:31.230Z,3.60
2022-09-14T14:21:27.588Z,4.00
2022-09-14T14:24:17.096Z,3.90
2022-09-14T14:27:02.809Z,3.10
2022-09-14T14:29:50.933Z,3.50
2022-09-14T14:32:36.634Z,3.10
2022-09-14T14:35:23.745Z,4.10
2022-09-14T14:38:09.305Z,3.10
2022-09-14T14:40:55.785Z,3.80
2022-09-14T14:43:42.266Z,3.90
2022-09-14T14:46:30.043Z,3.80
2022-09-14T14:49:16.577Z,3.00
2022-09-14T14:52:02.337Z,4.50
2022-09-14T14:54:47.920Z,2.80
2022-09-14T14:57:34.046Z,4.20
2022-09-14T15:00:20.773Z,3.20
2022-09-14T15:03:06.745Z,3.50
2022-09-14T15:05:51.833Z,2.80
2022-09-14T15:08:38.508Z,3.40
2022-09-14T15:11:23.854Z,3.70
2022-09-14T15:14:13.562Z,3.30
2022-09-14T15:16:59.327Z,3.70
2022-09-14T15:19:45.335Z,3.70
2022-09-14T15:22:30.734Z,4.10
2022-09-14T15:25:17.494Z,4.20
2022-09-14T15:28:03.124Z,4.80
2022-09-14T15:30:49.160Z,3.90
2022-09-14T15:33:34.260Z,4.20
2022-09-14T15:36:37.223Z,4.00
2022-09-14T15:39:24.403Z,4.20
2022-09-14T15:42:10.861Z,4.30
2022-09-14T15:44:56.228Z,4.00
2022-09-14T15:47:42.293Z,4.20
2022-09-14T15:50:32.099Z,4.80
2022-09-14T15:53:21.277Z,4.50
2022-09-14T15:56:10.777Z,4.50
2022-09-14T15:58:57.842Z,5.10
2022-09-14T16:01:43.192Z,6.00
2022-09-14T16:04:29.349Z,4.30
2022-09-14T16:07:15.026Z,4.60
2022-09-14T16:10:00.659Z,5.70
2022-09-14T16:12:46.067Z,5.20
2022-09-14T16:15:31.587Z,5.80
2022-09-14T16:18:16.985Z,4.50
2022-09-14T16:21:10.152Z,5.70
2022-09-14T16:23:57.431Z,5.10
2022-09-14T16:26:44.430Z,6.10
2022-09-14T16:29:29.797Z,5.40
2022-09-14T16:32:16.320Z,4.80
2022-09-14T16:35:05.863Z,4.90
2022-09-14T16:37:56.110Z,5.30
2022-09-14T16:40:43.028Z,6.60
2022-09-14T16:43:29.725Z,5.90
2022-09-14T16:46:16.839Z,5.80
2022-09-14T16:49:05.197Z,7.30
2022-09-14T16:51:53.137Z,6.90
2022-09-14T16:54:38.856Z,8.40
2022-09-14T16:57:26.257Z,6.80
2022-09-14T17:00:12.405Z,6.40
2022-09-14T17:02:58.134Z,7.00
2022-09-14T17:05:44.356Z,6.40
2022-09-14T17:08:30.931Z,6.40
2022-09-14T17:11:16.910Z,7.20
2022-09-14T17:14:02.714Z,7.00
2022-09-14T17:16:51.741Z,6.30
2022-09-14T17:19:41.647Z,6.20
2022-09-14T17:22:29.628Z,6.40
2022-09-14T17:25:17.863Z,6.70
2022-09-14T17:28:03.716Z,6.20
2022-09-14T17:30:53.387Z,5.80
2022-09-14T17:33:39.424Z,6.20
2022-09-14T17:36:25.146Z,5.30
2022-09-14T17:39:12.453Z,5.20
2022-09-14T17:42:00.825Z,5.90
2022-09-14T17:44:46.856Z,5.40
2022-09-14T17:47:34.052Z,5.20
2022-09-14T17:50:20.730Z,4.80
2022-09-14T17:53:06.367Z,5.30
2022-09-14T17:55:52.898Z,4.80
2022-09-14T17:58:39.273Z,4.80
2022-09-14T18:01:25.589Z,4.20
2022-09-14T18:04:12.508Z,3.80
2022-09-14T18:06:58.332Z,4.90
2022-09-14T18:09:44.286Z,3.80
2022-09-14T18:12:34.859Z,3.80
2022-09-14T18:15:20.797Z,3.40
2022-09-14T18:18:08.978Z,3.00
2022-09-14T18:20:54.822Z,3.70
2022-09-14T18:23:40.986Z,3.20
2022-09-14T18:26:26.937Z,3.60
2022-09-14T18:29:14.279Z,3.40
2022-09-14T18:32:02.542Z,4.00
2022-09-14T18:34:48.358Z,4.80
2022-09-14T18:37:33.920Z,4.60
2022-09-14T18:40:20.459Z,4.70
2022-09-14T18:43:06.327Z,4.80
2022-09-14T18:45:53.331Z,4.40
2022-09-14T18:48:40.122Z,4.00
2022-09-14T18:51:27.030Z,4.00
2022-09-14T18:54:12.903Z,3.90
2022-09-14T18:56:58.715Z,3.90
2022-09-14T18:59:46.654Z,3.50
2022-09-14T19:02:32.279Z,3.00
2022-09-14T19:05:18.109Z,4.10
2022-09-14T19:08:04.099Z,2.80
2022-09-14T19:10:50.037Z,3.80
2022-09-14T19:13:36.072Z,4.00
2022-09-14T19:16:21.697Z,4.00
2022-09-14T19:19:08.228Z,3.50
2022-09-14T19:21:53.671Z,2.90
2022-09-14T19:24:41.157Z,2.90
2022-09-14T19:27:27.180Z,3.80
2022-09-14T19:30:13.638Z,3.60
2022-09-14T19:32:59.537Z,3.20
2022-09-14T19:35:45.566Z,3.60
2022-09-14T19:38:30.813Z,2.70
2022-09-14T19:41:17.302Z,3.50
2022-09-14T19:44:03.279Z,3.10
2022-09-14T19:46:49.354Z,3.60
2022-09-14T19:49:34.984Z,3.10
2022-09-14T19:52:20.640Z,3.10
2022-09-14T19:55:06.136Z,3.20
2022-09-14T19:57:51.905Z,3.20
2022-09-14T20:00:37.470Z,3.50
2022-09-14T20:03:25.295Z,4.40
2022-09-14T20:06:18.490Z,4.00
2022-09-14T20:09:16.890Z,3.80
2022-09-14T20:12:02.770Z,4.40
2022-09-14T20:14:48.422Z,3.90
2022-09-14T20:17:34.233Z,5.20
2022-09-14T20:20:20.305Z,5.40
2022-09-14T20:23:05.714Z,3.80
2022-09-14T20:25:52.373Z,4.80
2022-09-14T20:28:39.021Z,3.90
2022-09-14T20:31:25.620Z,4.80
2022-09-14T20:34:11.423Z,4.90
2022-09-14T20:36:59.660Z,5.40
2022-09-14T20:39:45.057Z,4.30
2022-09-14T20:42:30.842Z,4.50
2022-09-14T20:45:19.438Z,4.70
2022-09-14T20:48:07.574Z,4.00
2022-09-14T20:50:53.065Z,4.20
2022-09-14T20:53:40.114Z,4.10
2022-09-14T20:56:27.479Z,4.60
2022-09-14T20:59:14.527Z,4.90
2022-09-14T21:02:09.959Z,5.80
2022-09-14T21:05:02.121Z,5.20
2022-09-14T21:11:01.830Z,5.30
2022-09-14T21:11:12.031Z,5.90
2022-09-14T21:13:50.830Z,6.00
2022-09-14T21:16:43.383Z,6.00
2022-09-14T21:19:29.780Z,5.90
2022-09-14T21:22:17.775Z,5.80
2022-09-14T21:25:05.274Z,6.80
2022-09-14T21:27:52.452Z,6.20
2022-09-14T21:30:42.545Z,6.40
2022-09-14T21:33:32.944Z,6.20
2022-09-14T21:36:21.381Z,7.30
2022-09-14T21:39:11.730Z,6.70
2022-09-14T21:42:00.265Z,5.60
2022-09-14T21:44:46.311Z,7.50
2022-09-14T21:47:33.535Z,6.90
2022-09-14T21:50:19.107Z,7.80
2022-09-14T21:53:04.891Z,7.00
2022-09-14T21:55:54.019Z,8.70
2022-09-14T21:58:41.729Z,8.50
2022-09-14T22:01:28.283Z,8.00
2022-09-14T22:04:16.626Z,7.00
2022-09-14T22:07:04.690Z,7.70
2022-09-14T22:09:52.413Z,7.00
2022-09-14T22:12:38.907Z,7.60
2022-09-14T22:15:31.302Z,6.70
2022-09-14T22:18:18.004Z,7.90
2022-09-14T22:21:04.491Z,7.20
2022-09-14T22:23:52.688Z,6.90
2022-09-14T22:26:45.630Z,7.80
2022-09-14T22:29:31.733Z,8.00
2022-09-14T22:32:21.878Z,7.40
2022-09-14T22:35:09.247Z,7.40
2022-09-14T22:37:55.359Z,6.00
2022-09-14T22:40:44.659Z,9.20
2022-09-14T22:43:31.476Z,7.00
2022-09-14T22:46:20.289Z,6.00
2022-09-14T22:49:06.171Z,6.00
2022-09-14T22:51:52.264Z,8.80
2022-09-14T22:54:37.779Z,8.80
2022-09-14T22:57:24.387Z,7.20
2022-09-14T23:00:15.091Z,8.50
2022-09-14T23:03:01.655Z,7.60
2022-09-14T23:05:48.534Z,6.70
2022-09-14T23:08:37.460Z,6.00
2022-09-14T23:11:23.362Z,8.20
2022-09-14T23:14:09.413Z,7.70
2022-09-14T23:16:55.520Z,7.70
2022-09-14T23:19:41.557Z,6.60
2022-09-14T23:22:27.112Z,9.40
2022-09-14T23:25:13.280Z,9.60
2022-09-14T23:27:58.766Z,10.10
2022-09-14T23:30:52.748Z,9.90
2022-09-14T23:33:38.663Z,11.00
2022-09-14T23:36:25.288Z,14.60
2022-09-14T23:39:14.100Z,14.00
2022-09-14T23:42:00.144Z,13.40
2022-09-14T23:44:45.871Z,14.60
